createdAt,value
2022-11-04T00:00:51.703Z,2.00
2022-11-04T00:03:26.561Z,1.80
2022-11-04T00:05:56.177Z,2.40
2022-11-04T00:08:33.435Z,1.80
2022-11-04T00:11:19.962Z,2.00
2022-11-04T00:13:55.557Z,2.17
2022-11-04T00:16:41.361Z,2.10
2022-11-04T00:19:16.569Z,1.83
2022-11-04T00:22:04.109Z,1.57
2022-11-04T00:24:52.453Z,1.87
2022-11-04T00:27:39.375Z,1.70
2022-11-04T00:30:16.419Z,1.83
2022-11-04T00:33:02.067Z,1.67
2022-11-04T00:35:37.593Z,1.70
2022-11-04T00:38:07.310Z,1.57
2022-11-04T00:40:42.575Z,1.57
2022-11-04T00:43:10.985Z,1.90
2022-11-04T00:45:46.629Z,1.80
2022-11-04T00:48:15.329Z,1.73
2022-11-04T00:50:50.486Z,1.53
2022-11-04T00:53:20.223Z,1.70
2022-11-04T00:55:55.415Z,1.53
2022-11-04T00:58:23.956Z,1.93
2022-11-04T01:01:05.502Z,1.80
2022-11-04T01:03:40.872Z,2.00
2022-11-04T01:06:15.494Z,1.77
2022-11-04T01:08:45.550Z,2.47
2022-11-04T01:11:20.635Z,1.80
2022-11-04T01:13:51.969Z,1.80
2022-11-04T01:19:00.761Z,1.80
2022-11-04T01:21:35.458Z,1.90
2022-11-04T01:24:06.974Z,1.80
2022-11-04T01:26:42.511Z,2.00
2022-11-04T01:29:10.890Z,2.03
2022-11-04T01:31:45.514Z,1.73
2022-11-04T01:34:13.955Z,2.00
2022-11-04T01:36:48.526Z,2.43
2022-11-04T01:39:18.046Z,1.97
2022-11-04T01:41:52.602Z,2.30
2022-11-04T01:44:50.506Z,1.80
2022-11-04T01:47:28.636Z,2.13
2022-11-04T01:50:01.489Z,1.93
2022-11-04T01:52:41.575Z,2.20
2022-11-04T01:55:17.712Z,2.17
2022-11-04T01:57:56.507Z,1.93
2022-11-04T02:00:44.765Z,2.07
2022-11-04T02:03:23.552Z,2.20
2022-11-04T02:05:53.385Z,2.27
2022-11-04T02:08:29.531Z,2.30
2022-11-04T02:11:07.586Z,2.43
2022-11-04T02:13:37.040Z,2.10
2022-11-04T02:16:21.672Z,2.27
2022-11-04T02:19:03.003Z,1.90
2022-11-04T02:22:06.474Z,2.47
2022-11-04T02:24:56.401Z,1.80
2022-11-04T02:27:44.513Z,2.10
2022-11-04T02:30:16.692Z,2.10
2022-11-04T02:33:08.622Z,1.97
2022-11-04T02:35:45.205Z,2.00
2022-11-04T02:38:28.715Z,2.03
2022-11-04T02:41:05.757Z,1.97
2022-11-04T02:43:46.519Z,1.77
2022-11-04T02:46:20.824Z,2.30
2022-11-04T02:49:01.724Z,2.20
2022-11-04T02:51:34.966Z,1.97
2022-11-04T02:54:15.679Z,2.37
2022-11-04T02:56:50.145Z,2.43
2022-11-04T02:59:30.492Z,2.30
2022-11-04T03:02:25.780Z,2.23
2022-11-04T03:05:01.713Z,2.33
2022-11-04T03:07:35.563Z,2.90
2022-11-04T03:10:16.872Z,2.43
2022-11-04T03:12:50.411Z,2.80
2022-11-04T03:15:30.551Z,2.33
2022-11-04T03:18:06.365Z,2.63
2022-11-04T03:20:44.573Z,2.70
2022-11-04T03:23:13.729Z,3.03
2022-11-04T03:25:53.551Z,3.03
2022-11-04T03:28:33.365Z,2.83
2022-11-04T03:31:12.554Z,2.93
2022-11-04T03:33:46.793Z,2.30
2022-11-04T03:36:21.635Z,2.60
2022-11-04T03:38:50.620Z,3.20
2022-11-04T03:41:29.657Z,2.60
2022-11-04T03:43:58.505Z,3.03
2022-11-04T03:46:33.562Z,2.63
2022-11-04T03:49:04.349Z,2.50
2022-11-04T03:51:39.559Z,2.70
2022-11-04T03:54:09.538Z,2.73
2022-11-04T03:57:03.656Z,3.13
2022-11-04T03:59:52.081Z,2.70
2022-11-04T04:02:41.617Z,2.77
2022-11-04T04:05:19.148Z,2.80
2022-11-04T04:08:00.790Z,2.60
2022-11-04T04:10:41.163Z,2.60
2022-11-04T04:13:33.659Z,2.67
2022-11-04T04:16:06.411Z,2.80
2022-11-04T04:18:46.652Z,3.00
2022-11-04T04:21:21.707Z,2.83
2022-11-04T04:24:17.760Z,2.60
2022-11-04T04:27:05.818Z,2.63
2022-11-04T04:29:41.623Z,2.43
2022-11-04T04:32:10.474Z,2.33
2022-11-04T04:34:45.656Z,2.37
2022-11-04T04:37:21.491Z,2.50
2022-11-04T04:40:22.096Z,2.80
2022-11-04T04:43:13.626Z,2.60
2022-11-04T04:45:51.810Z,2.40
2022-11-04T04:48:20.341Z,2.50
2022-11-04T04:50:58.699Z,2.47
2022-11-04T04:53:28.340Z,2.47
2022-11-04T04:56:03.837Z,2.30
2022-11-04T04:58:32.038Z,2.30
2022-11-04T05:01:06.696Z,2.53
2022-11-04T05:03:45.138Z,2.60
2022-11-04T05:06:20.710Z,2.20
2022-11-04T05:08:50.351Z,2.80
2022-11-04T05:11:27.296Z,2.73
2022-11-04T05:13:55.972Z,2.40
2022-11-04T05:16:30.819Z,2.30
2022-11-04T05:18:59.376Z,2.53
2022-11-04T05:21:33.733Z,2.30
2022-11-04T05:24:03.566Z,2.53
2022-11-04T05:26:38.776Z,2.40
2022-11-04T05:29:07.061Z,2.40
2022-11-04T05:31:41.771Z,2.37
2022-11-04T05:34:12.417Z,2.00
2022-11-04T05:36:47.709Z,2.27
2022-11-04T05:39:17.522Z,2.57
2022-11-04T05:41:52.760Z,2.30
2022-11-04T05:44:21.173Z,2.37
2022-11-04T05:46:55.722Z,2.20
2022-11-04T05:49:24.336Z,2.40
2022-11-04T05:51:58.845Z,2.50
2022-11-04T05:54:28.484Z,2.40
2022-11-04T05:57:03.867Z,2.37
2022-11-04T05:59:31.993Z,2.60
2022-11-04T06:02:06.857Z,2.30
2022-11-04T06:04:41.736Z,2.00
2022-11-04T06:07:16.752Z,2.57
2022-11-04T06:09:52.721Z,2.37
2022-11-04T06:12:20.864Z,2.50
2022-11-04T06:14:58.742Z,2.40
2022-11-04T06:17:27.574Z,2.30
2022-11-04T06:20:02.762Z,2.40
2022-11-04T06:22:30.889Z,2.27
2022-11-04T06:25:06.722Z,2.00
2022-11-04T06:27:35.508Z,2.20
2022-11-04T06:30:10.789Z,2.17
2022-11-04T06:32:38.963Z,2.30
2022-11-04T06:35:15.776Z,2.20
2022-11-04T06:37:43.933Z,2.33
2022-11-04T06:40:20.705Z,2.43
2022-11-04T06:42:50.609Z,2.33
2022-11-04T06:45:25.852Z,2.37
2022-11-04T06:47:54.229Z,2.20
2022-11-04T06:50:28.911Z,2.20
2022-11-04T06:52:57.031Z,2.50
2022-11-04T06:55:33.940Z,2.37
2022-11-04T06:58:02.495Z,2.10
2022-11-04T07:00:36.933Z,2.10
2022-11-04T07:03:12.411Z,2.23
2022-11-04T07:05:46.733Z,2.03
2022-11-04T07:08:15.246Z,2.30
2022-11-04T07:10:51.924Z,2.30
2022-11-04T07:13:20.373Z,2.50
2022-11-04T07:15:55.761Z,2.27
2022-11-04T07:18:24.037Z,2.67
2022-11-04T07:20:59.071Z,2.20
2022-11-04T07:23:27.717Z,2.57
2022-11-04T07:26:07.815Z,2.23
2022-11-04T07:28:36.878Z,2.43
2022-11-04T07:31:13.756Z,2.83
2022-11-04T07:33:42.396Z,2.40
2022-11-04T07:36:20.956Z,2.60
2022-11-04T07:38:49.995Z,2.60
2022-11-04T07:41:26.842Z,2.53
2022-11-04T07:43:55.291Z,3.13
2022-11-04T07:46:29.948Z,2.10
2022-11-04T07:48:59.302Z,2.47
2022-11-04T07:51:34.964Z,2.43
2022-11-04T07:54:03.724Z,2.70
2022-11-04T07:56:39.851Z,2.80
2022-11-04T07:59:08.162Z,2.67
2022-11-04T08:01:50.353Z,3.17
2022-11-04T08:04:25.030Z,2.80
2022-11-04T08:07:00.086Z,2.93
2022-11-04T08:09:28.334Z,2.27
2022-11-04T08:12:05.029Z,2.47
2022-11-04T08:14:33.575Z,2.50
2022-11-04T08:17:08.866Z,2.70
2022-11-04T08:19:37.169Z,2.23
2022-11-04T08:22:11.846Z,2.10
2022-11-04T08:24:40.857Z,2.23
2022-11-04T08:27:17.013Z,2.90
2022-11-04T08:29:45.477Z,2.80
2022-11-04T08:32:20.781Z,2.90
2022-11-04T08:34:49.273Z,2.37
2022-11-04T08:37:24.829Z,2.40
2022-11-04T08:39:53.162Z,2.47
2022-11-04T08:42:29.824Z,2.57
2022-11-04T08:44:58.295Z,2.40
2022-11-04T08:47:32.832Z,3.33
2022-11-04T08:50:01.296Z,3.30
2022-11-04T08:52:36.035Z,2.70
2022-11-04T08:55:04.298Z,2.90
2022-11-04T08:57:40.986Z,2.67
2022-11-04T09:00:10.182Z,2.37
2022-11-04T09:02:52.061Z,2.33
2022-11-04T09:05:29.029Z,2.70
2022-11-04T09:08:03.867Z,2.17
2022-11-04T09:10:32.054Z,2.37
2022-11-04T09:13:09.164Z,2.93
2022-11-04T09:15:37.902Z,2.33
2022-11-04T09:18:12.929Z,2.30
2022-11-04T09:20:42.228Z,2.23
2022-11-04T09:23:17.883Z,2.10
2022-11-04T09:25:46.089Z,2.40
2022-11-04T09:28:21.977Z,2.53
2022-11-04T09:30:50.670Z,2.70
2022-11-04T09:33:26.077Z,2.23
2022-11-04T09:35:57.823Z,2.47
2022-11-04T09:38:32.859Z,2.77
2022-11-04T09:41:03.099Z,2.80
2022-11-04T09:43:53.891Z,2.30
2022-11-04T09:46:23.277Z,2.40
2022-11-04T09:49:01.964Z,2.40
2022-11-04T09:51:53.213Z,2.63
2022-11-04T09:54:29.883Z,2.50
2022-11-04T09:57:00.690Z,1.77
2022-11-04T09:59:39.938Z,2.40
2022-11-04T10:02:59.843Z,2.70
2022-11-04T10:05:58.025Z,2.80
2022-11-04T10:09:01.921Z,2.57
2022-11-04T10:11:37.994Z,2.60
2022-11-04T10:14:35.332Z,2.87
2022-11-04T10:17:13.079Z,2.80
2022-11-04T10:19:59.898Z,2.50
2022-11-04T10:22:34.143Z,2.30
2022-11-04T10:25:17.915Z,2.57
2022-11-04T10:27:55.094Z,2.80
2022-11-04T10:30:25.029Z,2.73
2022-11-04T10:33:11.350Z,2.90
2022-11-04T10:35:43.853Z,2.77
2022-11-04T10:38:27.119Z,2.97
2022-11-04T10:40:57.869Z,2.80
2022-11-04T10:43:39.954Z,3.67
2022-11-04T10:46:35.718Z,2.70
2022-11-04T10:49:39.106Z,2.93
2022-11-04T10:52:19.261Z,2.93
2022-11-04T10:54:51.427Z,2.90
2022-11-04T10:57:29.045Z,2.73
2022-11-04T11:00:00.186Z,2.50
2022-11-04T11:02:55.930Z,2.60
2022-11-04T11:05:33.398Z,4.20
2022-11-04T11:08:08.015Z,3.30
2022-11-04T11:10:36.324Z,3.70
2022-11-04T11:13:13.988Z,3.80
2022-11-04T11:15:42.628Z,3.67
2022-11-04T11:18:23.293Z,4.10
2022-11-04T11:21:07.782Z,3.40
2022-11-04T11:23:48.978Z,3.47
2022-11-04T11:26:19.889Z,3.10
2022-11-04T11:29:03.001Z,3.27
2022-11-04T11:31:37.809Z,3.70
2022-11-04T11:34:15.045Z,3.80
2022-11-04T11:36:48.135Z,4.00
2022-11-04T11:39:29.083Z,3.87
2022-11-04T11:42:00.589Z,4.40
2022-11-04T11:44:39.010Z,6.27
2022-11-04T11:47:09.220Z,5.27
2022-11-04T11:49:45.193Z,6.20
2022-11-04T11:52:33.005Z,5.70
2022-11-04T11:55:15.030Z,6.30
2022-11-04T12:01:05.226Z,6.33
2022-11-04T12:09:55.284Z,6.63
2022-11-04T12:12:47.418Z,6.70
2022-11-04T12:15:46.745Z,6.90
2022-11-04T12:18:50.200Z,6.07
2022-11-04T12:21:24.079Z,6.30
2022-11-04T12:24:02.016Z,6.73
2022-11-04T12:26:40.842Z,7.63
2022-11-04T12:29:44.036Z,7.53
2022-11-04T12:32:22.298Z,8.70
2022-11-04T12:35:09.069Z,9.40
2022-11-04T12:37:50.556Z,10.50
2022-11-04T12:40:29.241Z,9.73
2022-11-04T12:43:21.334Z,10.83
2022-11-04T12:46:12.013Z,11.47
2022-11-04T12:49:06.884Z,10.67
2022-11-04T12:51:49.014Z,11.07
2022-11-04T12:54:32.500Z,9.80
2022-11-04T12:57:19.057Z,10.03
2022-11-04T13:00:12.612Z,10.03
2022-11-04T13:02:53.406Z,8.33
2022-11-04T13:05:38.565Z,9.20
2022-11-04T13:08:22.236Z,10.10
2022-11-04T13:10:55.324Z,9.27
2022-11-04T13:13:34.161Z,8.97
2022-11-04T13:16:10.388Z,9.50
2022-11-04T13:18:48.286Z,8.90
2022-11-04T13:21:21.275Z,9.60
2022-11-04T13:24:00.106Z,9.17
2022-11-04T13:26:28.927Z,8.93
2022-11-04T13:29:10.132Z,8.77
2022-11-04T13:31:50.990Z,8.50
2022-11-04T13:34:35.279Z,8.80
2022-11-04T13:37:14.524Z,6.60
2022-11-04T13:39:54.066Z,7.00
2022-11-04T13:42:39.088Z,7.07
2022-11-04T13:45:21.126Z,8.20
2022-11-04T13:47:55.287Z,7.00
2022-11-04T13:50:41.269Z,7.10
2022-11-04T13:53:12.739Z,6.23
2022-11-04T13:56:09.524Z,6.70
2022-11-04T13:58:53.727Z,7.30
2022-11-04T14:01:36.248Z,6.23
2022-11-04T14:04:38.929Z,6.33
2022-11-04T14:07:17.372Z,7.07
2022-11-04T14:09:57.336Z,7.50
2022-11-04T14:12:43.198Z,6.23
2022-11-04T14:15:15.181Z,7.03
2022-11-04T14:18:10.481Z,5.80
2022-11-04T14:21:03.594Z,6.07
2022-11-04T14:23:39.165Z,5.93
2022-11-04T14:26:09.284Z,6.00
2022-11-04T14:28:45.107Z,5.90
2022-11-04T14:31:17.633Z,4.30
2022-11-04T14:34:01.325Z,4.67
2022-11-04T14:36:35.973Z,4.40
2022-11-04T14:39:16.347Z,5.33
2022-11-04T14:41:57.634Z,4.87
2022-11-04T14:44:39.349Z,4.60
2022-11-04T14:47:20.192Z,4.73
2022-11-04T14:49:57.200Z,4.87
2022-11-04T14:52:29.979Z,4.93
2022-11-04T14:55:10.177Z,4.27
2022-11-04T14:57:40.511Z,4.07
2022-11-04T15:00:29.200Z,4.33
2022-11-04T15:04:09.395Z,4.47
2022-11-04T15:06:53.763Z,3.03
2022-11-04T15:09:24.355Z,3.23
2022-11-04T15:12:22.231Z,2.07
2022-11-04T15:14:50.788Z,2.70
2022-11-04T15:17:28.268Z,2.30
2022-11-04T15:19:59.606Z,2.40
2022-11-04T15:22:36.357Z,2.40
2022-11-04T15:25:12.115Z,3.37
2022-11-04T15:27:49.219Z,2.87
2022-11-04T15:30:23.658Z,3.07
2022-11-04T15:33:03.447Z,2.93
2022-11-04T15:35:34.673Z,3.20
2022-11-04T15:38:11.430Z,2.83
2022-11-04T15:40:43.028Z,2.90
2022-11-04T15:43:17.482Z,2.17
2022-11-04T15:45:56.211Z,2.57
2022-11-04T15:48:36.250Z,2.47
2022-11-04T15:51:15.821Z,2.43
2022-11-04T15:54:03.216Z,2.20
2022-11-04T15:56:40.086Z,2.03
2022-11-04T15:59:20.344Z,2.93
2022-11-04T16:01:50.634Z,2.80
2022-11-04T16:04:45.372Z,2.83
2022-11-04T16:07:24.904Z,3.00
2022-11-04T16:10:06.877Z,2.80
2022-11-04T16:12:39.492Z,2.53
2022-11-04T16:15:35.335Z,2.50
2022-11-04T16:18:06.957Z,2.53
2022-11-04T16:20:43.230Z,2.53
2022-11-04T16:23:19.068Z,2.57
2022-11-04T16:25:54.365Z,3.00
2022-11-04T16:28:22.809Z,3.10
2022-11-04T16:31:07.256Z,2.70
2022-11-04T16:33:36.823Z,2.50
2022-11-04T16:36:20.332Z,2.30
2022-11-04T16:38:48.538Z,2.20
2022-11-04T16:41:23.298Z,1.97
2022-11-04T16:43:52.228Z,2.03
2022-11-04T16:46:28.290Z,2.00
2022-11-04T16:48:58.105Z,1.80
2022-11-04T16:51:33.333Z,1.90
2022-11-04T16:54:01.536Z,2.00
2022-11-04T16:56:36.327Z,2.50
2022-11-04T16:59:04.687Z,2.30
2022-11-04T17:01:39.426Z,2.10
2022-11-04T17:04:29.299Z,1.93
2022-11-04T17:07:04.283Z,2.03
2022-11-04T17:09:32.483Z,1.80
2022-11-04T17:12:07.290Z,2.83
2022-11-04T17:14:35.513Z,3.30
2022-11-04T17:17:11.286Z,2.57
2022-11-04T17:19:41.136Z,3.23
2022-11-04T17:22:16.365Z,3.10
2022-11-04T17:24:44.946Z,2.73
2022-11-04T17:27:19.606Z,3.10
2022-11-04T17:29:47.808Z,2.70
2022-11-04T17:32:22.332Z,3.10
2022-11-04T17:34:52.635Z,2.70
2022-11-04T17:37:27.360Z,2.90
2022-11-04T17:39:55.622Z,2.60
2022-11-04T17:42:47.558Z,2.90
2022-11-04T17:45:16.044Z,2.63
2022-11-04T17:47:50.355Z,3.07
2022-11-04T17:50:20.709Z,2.50
2022-11-04T17:52:55.338Z,2.70
2022-11-04T17:55:27.459Z,2.97
2022-11-04T17:58:03.360Z,3.50
2022-11-04T18:00:31.776Z,3.40
2022-11-04T18:03:07.785Z,3.93
2022-11-04T18:05:44.074Z,3.50
2022-11-04T18:08:19.523Z,4.63
2022-11-04T18:10:47.656Z,3.57
2022-11-04T18:13:22.314Z,3.73
2022-11-04T18:15:50.699Z,3.43
2022-11-04T18:18:25.410Z,3.40
2022-11-04T18:21:03.751Z,4.10
2022-11-04T18:23:38.448Z,5.77
2022-11-04T18:26:10.080Z,10.13
2022-11-04T18:28:45.381Z,8.33
2022-11-04T18:31:21.324Z,7.67
2022-11-04T18:33:56.416Z,5.40
2022-11-04T18:36:26.446Z,5.10
2022-11-04T18:39:01.393Z,5.03
2022-11-04T18:41:29.842Z,5.30
2022-11-04T18:44:05.563Z,6.20
2022-11-04T18:46:33.864Z,7.83
2022-11-04T18:49:08.385Z,6.57
2022-11-04T18:51:38.402Z,4.87
2022-11-04T18:54:14.620Z,4.00
2022-11-04T18:56:44.483Z,3.60
2022-11-04T18:59:21.407Z,4.20
2022-11-04T19:01:51.321Z,3.73
2022-11-04T19:04:26.578Z,3.77
2022-11-04T19:06:56.602Z,3.70
2022-11-04T19:09:46.221Z,3.97
2022-11-04T19:12:39.450Z,4.03
2022-11-04T19:15:09.060Z,4.07
2022-11-04T19:17:37.677Z,4.63
2022-11-04T19:20:13.416Z,4.50
2022-11-04T19:22:43.133Z,4.73
2022-11-04T19:25:18.462Z,4.60
2022-11-04T19:28:18.539Z,4.50
2022-11-04T19:30:43.240Z,4.97
2022-11-04T19:33:18.618Z,6.87
2022-11-04T19:35:46.998Z,6.80
2022-11-04T19:38:24.939Z,6.57
2022-11-04T19:40:53.797Z,7.63
2022-11-04T19:43:29.759Z,9.33
2022-11-04T19:46:04.466Z,9.53
2022-11-04T19:48:39.663Z,6.13
2022-11-04T19:51:13.660Z,5.83
2022-11-04T19:53:49.534Z,5.20
2022-11-04T19:56:19.157Z,5.47
2022-11-04T19:58:55.524Z,5.80
2022-11-04T20:01:24.431Z,5.67
2022-11-04T20:04:06.511Z,6.17
2022-11-04T20:06:41.674Z,5.40
2022-11-04T20:09:19.623Z,5.27
2022-11-04T20:12:05.302Z,5.40
2022-11-04T20:14:40.518Z,5.43
2022-11-04T20:17:08.757Z,6.90
2022-11-04T20:19:43.466Z,6.50
2022-11-04T20:22:12.017Z,6.80
2022-11-04T20:24:48.423Z,5.83
2022-11-04T20:27:17.188Z,5.50
2022-11-04T20:29:52.824Z,5.33
2022-11-04T20:32:21.204Z,5.30
2022-11-04T20:34:56.504Z,4.93
2022-11-04T20:37:25.748Z,4.83
2022-11-04T20:40:02.567Z,5.40
2022-11-04T20:42:30.888Z,5.63
2022-11-04T20:45:06.520Z,5.80
2022-11-04T20:47:36.200Z,5.60
2022-11-04T20:50:11.583Z,5.80
2022-11-04T20:52:40.099Z,5.77
2022-11-04T20:55:18.524Z,6.00
2022-11-04T20:57:47.145Z,6.33
2022-11-04T21:00:22.580Z,6.20
2022-11-04T21:02:51.357Z,6.20
2022-11-04T21:05:32.566Z,6.07
2022-11-04T21:08:08.234Z,6.27
2022-11-04T21:10:44.839Z,6.30
2022-11-04T21:13:13.045Z,6.83
2022-11-04T21:15:50.594Z,6.67
2022-11-04T21:18:18.925Z,6.43
2022-11-04T21:20:54.514Z,6.97
2022-11-04T21:23:23.206Z,6.70
2022-11-04T21:26:01.725Z,7.20
2022-11-04T21:28:30.016Z,7.10
2022-11-04T21:31:10.641Z,6.50
2022-11-04T21:33:39.661Z,7.57
2022-11-04T21:36:16.539Z,7.40
2022-11-04T21:38:45.710Z,7.70
2022-11-04T21:41:23.552Z,6.60
2022-11-04T21:43:56.133Z,6.70
2022-11-04T21:46:31.507Z,7.20
2022-11-04T21:49:00.948Z,7.10
2022-11-04T21:51:37.723Z,7.33
2022-11-04T21:54:08.038Z,7.10
2022-11-04T21:56:44.589Z,7.70
2022-11-04T21:59:18.161Z,7.27
2022-11-04T22:01:53.628Z,7.20
2022-11-04T22:04:29.033Z,7.37
2022-11-04T22:07:09.561Z,7.10
2022-11-04T22:09:38.244Z,7.27
2022-11-04T22:12:14.585Z,7.00
2022-11-04T22:14:42.927Z,7.97
2022-11-04T22:17:17.767Z,7.33
2022-11-04T22:19:47.625Z,7.50
2022-11-04T22:22:22.765Z,7.20
2022-11-04T22:25:03.163Z,7.07
2022-11-04T22:27:39.622Z,7.00
2022-11-04T22:30:09.952Z,6.57
2022-11-04T22:32:44.603Z,7.40
2022-11-04T22:35:12.754Z,7.07
2022-11-04T22:37:47.744Z,7.20
2022-11-04T22:40:16.087Z,7.33
2022-11-04T22:42:52.597Z,6.97
2022-11-04T22:45:21.165Z,6.87
2022-11-04T22:47:56.626Z,7.27
2022-11-04T22:50:24.802Z,6.70
2022-11-04T22:52:59.795Z,7.70
2022-11-04T22:55:28.292Z,6.87
2022-11-04T22:58:04.550Z,7.60
2022-11-04T23:00:33.505Z,6.60
2022-11-04T23:03:08.999Z,6.80
2022-11-04T23:05:44.438Z,7.73
2022-11-04T23:08:26.580Z,6.83
2022-11-04T23:11:16.121Z,6.67
2022-11-04T23:14:20.210Z,7.10
2022-11-04T23:17:14.670Z,7.17
2022-11-04T23:19:43.738Z,7.20
2022-11-04T23:22:36.673Z,7.00
2022-11-04T23:25:09.871Z,6.50
2022-11-04T23:28:04.662Z,6.33
2022-11-04T23:30:36.218Z,6.27
2022-11-04T23:33:12.891Z,6.27
2022-11-04T23:36:00.889Z,6.40
2022-11-04T23:38:37.833Z,7.20
2022-11-04T23:41:37.467Z,7.20
2022-11-04T23:44:32.662Z,8.13
2022-11-04T23:47:19.412Z,8.40
2022-11-04T23:50:11.817Z,8.30
2022-11-04T23:52:57.742Z,8.23
2022-11-04T23:55:52.797Z,8.80
2022-11-04T23:58:38.261Z,7.60
